createdAt,value
2018-09-17T00:00:57.768Z,5.50
2018-09-17T00:01:57.760Z,5.30
2018-09-17T00:02:57.741Z,5.30
2018-09-17T00:03:57.731Z,5.50
2018-09-17T00:04:57.777Z,5.20
2018-09-17T00:05:57.713Z,5.10
2018-09-17T00:06:57.703Z,5.20
2018-09-17T00:07:57.695Z,5.10
2018-09-17T00:08:57.686Z,5.20
2018-09-17T00:09:57.684Z,5.00
2018-09-17T00:10:57.652Z,4.90
2018-09-17T00:11:57.641Z,5.20
2018-09-17T00:12:57.630Z,5.00
2018-09-17T00:13:57.635Z,5.40
2018-09-17T00:14:57.624Z,5.00
2018-09-17T00:15:57.598Z,5.20
2018-09-17T00:16:57.587Z,5.70
2018-09-17T00:17:57.576Z,4.90
2018-09-17T00:18:57.566Z,5.30
2018-09-17T00:19:57.584Z,5.00
2018-09-17T00:20:57.544Z,5.30
2018-09-17T00:21:57.532Z,5.20
2018-09-17T00:22:57.529Z,5.30
2018-09-17T00:23:57.516Z,5.20
2018-09-17T00:24:57.514Z,5.20
2018-09-17T00:25:57.495Z,5.20
2018-09-17T00:26:57.483Z,5.10
2018-09-17T00:27:57.470Z,5.10
2018-09-17T00:28:57.463Z,5.10
2018-09-17T00:29:57.459Z,5.10
2018-09-17T00:30:57.437Z,5.10
2018-09-17T00:31:57.429Z,5.10
2018-09-17T00:32:57.410Z,5.10
2018-09-17T00:33:57.398Z,5.20
2018-09-17T00:34:57.407Z,5.10
2018-09-17T00:35:57.377Z,5.10
2018-09-17T00:36:57.366Z,5.40
2018-09-17T00:37:57.368Z,5.00
2018-09-17T00:38:57.347Z,5.50
2018-09-17T00:39:57.347Z,5.10
2018-09-17T00:40:57.321Z,5.30
2018-09-17T00:41:57.311Z,5.20
2018-09-17T00:42:57.300Z,5.10
2018-09-17T00:43:57.298Z,5.10
2018-09-17T00:44:57.311Z,5.30
2018-09-17T00:45:57.273Z,5.00
2018-09-17T00:46:57.263Z,4.90
2018-09-17T00:47:57.250Z,5.30
2018-09-17T00:48:57.233Z,4.90
2018-09-17T00:49:57.245Z,5.00
2018-09-17T00:50:57.219Z,5.10
2018-09-17T00:51:57.213Z,5.10
2018-09-17T00:52:57.188Z,5.00
2018-09-17T00:53:57.177Z,4.90
2018-09-17T00:54:57.179Z,5.20
2018-09-17T00:55:57.167Z,5.10
2018-09-17T00:56:57.143Z,4.90
2018-09-17T00:57:57.276Z,5.20
2018-09-17T00:58:57.121Z,5.00
2018-09-17T00:59:57.147Z,5.20
2018-09-17T01:00:57.102Z,5.40
2018-09-17T01:01:57.099Z,5.30
2018-09-17T01:02:57.078Z,5.40
2018-09-17T01:03:57.065Z,4.90
2018-09-17T01:04:57.068Z,5.40
2018-09-17T01:05:57.041Z,5.10
2018-09-17T01:06:57.035Z,5.10
2018-09-17T01:07:57.028Z,5.00
2018-09-17T01:08:57.015Z,5.40
2018-09-17T01:09:57.026Z,5.10
2018-09-17T01:10:56.991Z,5.30
2018-09-17T01:11:56.983Z,5.10
2018-09-17T01:12:56.969Z,5.00
2018-09-17T01:13:56.972Z,5.20
2018-09-17T01:14:56.943Z,5.50
2018-09-17T01:15:56.947Z,5.20
2018-09-17T01:16:56.919Z,5.30
2018-09-17T01:17:56.910Z,5.30
2018-09-17T01:18:56.896Z,5.50
2018-09-17T01:19:56.893Z,5.00
2018-09-17T01:20:56.898Z,5.10
2018-09-17T01:21:56.863Z,5.20
2018-09-17T01:22:56.851Z,5.00
2018-09-17T01:23:56.841Z,5.20
2018-09-17T01:24:56.837Z,5.30
2018-09-17T01:25:56.849Z,5.20
2018-09-17T01:26:56.810Z,5.20
2018-09-17T01:27:56.795Z,5.00
2018-09-17T01:28:56.785Z,5.90
2018-09-17T01:29:56.776Z,5.70
2018-09-17T01:30:56.801Z,5.30
2018-09-17T01:31:56.764Z,5.70
2018-09-17T01:32:56.738Z,5.10
2018-09-17T01:33:56.732Z,5.30
2018-09-17T01:34:56.716Z,5.40
2018-09-17T01:35:56.726Z,5.80
2018-09-17T01:36:56.694Z,5.60
2018-09-17T01:37:56.696Z,5.30
2018-09-17T01:38:56.671Z,5.40
2018-09-17T01:39:56.660Z,5.50
2018-09-17T01:40:56.664Z,5.50
2018-09-17T01:41:56.641Z,5.50
2018-09-17T01:42:56.625Z,5.70
2018-09-17T01:43:56.640Z,5.50
2018-09-17T01:44:56.603Z,5.40
2018-09-17T01:45:56.606Z,5.70
2018-09-17T01:46:56.583Z,5.10
2018-09-17T01:47:56.572Z,5.20
2018-09-17T01:48:56.559Z,5.30
2018-09-17T01:49:56.561Z,5.50
2018-09-17T01:50:56.552Z,5.20
2018-09-17T01:51:56.525Z,5.50
2018-09-17T01:52:56.514Z,5.40
2018-09-17T01:53:56.507Z,5.60
2018-09-17T01:54:56.491Z,5.20
2018-09-17T01:55:56.505Z,5.40
2018-09-17T01:56:56.470Z,5.60
2018-09-17T01:57:56.464Z,5.30
2018-09-17T01:58:56.447Z,5.50
2018-09-17T01:59:56.435Z,5.90
2018-09-17T02:00:56.446Z,5.30
2018-09-17T02:01:56.425Z,5.10
2018-09-17T02:02:56.405Z,5.50
2018-09-17T02:03:56.395Z,5.20
2018-09-17T02:04:56.388Z,5.20
2018-09-17T02:05:56.390Z,5.70
2018-09-17T02:06:56.360Z,5.60
2018-09-17T02:07:56.361Z,5.00
2018-09-17T02:08:56.360Z,5.30
2018-09-17T02:09:56.362Z,5.40
2018-09-17T02:10:56.331Z,5.00
2018-09-17T02:11:56.306Z,5.10
2018-09-17T02:12:56.296Z,5.10
2018-09-17T02:13:56.294Z,4.80
2018-09-17T02:14:56.274Z,5.00
2018-09-17T02:15:56.279Z,4.70
2018-09-17T02:16:56.257Z,5.10
2018-09-17T02:17:56.241Z,5.20
2018-09-17T02:18:56.234Z,5.20
2018-09-17T02:19:56.236Z,4.90
2018-09-17T02:20:56.223Z,4.80
2018-09-17T02:21:56.197Z,4.90
2018-09-17T02:22:56.191Z,4.90
2018-09-17T02:23:56.179Z,4.80
2018-09-17T02:24:56.164Z,5.20
2018-09-17T02:25:56.200Z,4.90
2018-09-17T02:26:56.142Z,4.90
2018-09-17T02:27:56.131Z,5.00
2018-09-17T02:28:56.124Z,4.90
2018-09-17T02:29:56.113Z,5.20
2018-09-17T02:30:56.102Z,4.70
2018-09-17T02:31:56.124Z,5.00
2018-09-17T02:32:56.077Z,5.00
2018-09-17T02:33:56.066Z,5.00
2018-09-17T02:34:56.054Z,4.50
2018-09-17T02:35:56.043Z,4.80
2018-09-17T02:36:56.050Z,5.10
2018-09-17T02:37:56.035Z,5.00
2018-09-17T02:38:56.015Z,5.20
2018-09-17T02:39:55.999Z,4.60
2018-09-17T02:40:55.989Z,5.40
2018-09-17T02:41:55.994Z,5.20
2018-09-17T02:42:55.966Z,4.80
2018-09-17T02:43:55.965Z,4.90
2018-09-17T02:44:55.947Z,5.00
2018-09-17T02:45:55.932Z,4.40
2018-09-17T02:46:55.944Z,4.90
2018-09-17T02:47:55.911Z,5.00
2018-09-17T02:48:55.900Z,5.10
2018-09-17T02:49:55.904Z,5.00
2018-09-17T02:50:55.882Z,4.80
2018-09-17T02:51:55.881Z,4.60
2018-09-17T02:52:55.859Z,5.10
2018-09-17T02:53:55.845Z,4.90
2018-09-17T02:54:55.834Z,5.20
2018-09-17T02:55:55.838Z,4.80
2018-09-17T02:56:55.826Z,4.70
2018-09-17T02:57:55.804Z,5.00
2018-09-17T02:58:55.789Z,4.90
2018-09-17T02:59:55.778Z,5.00
2018-09-17T03:00:55.767Z,5.00
2018-09-17T03:01:55.779Z,4.80
2018-09-17T03:02:55.749Z,4.90
2018-09-17T03:03:55.734Z,5.10
2018-09-17T03:04:55.728Z,4.60
2018-09-17T03:05:55.713Z,4.80
2018-09-17T03:06:55.717Z,4.90
2018-09-17T03:07:55.697Z,4.80
2018-09-17T03:08:55.679Z,4.80
2018-09-17T03:09:55.667Z,5.20
2018-09-17T03:10:55.656Z,4.80
2018-09-17T03:11:55.665Z,4.90
2018-09-17T03:12:55.639Z,4.90
2018-09-17T03:13:55.631Z,5.10
2018-09-17T03:14:55.618Z,5.00
2018-09-17T03:15:55.603Z,4.90
2018-09-17T03:16:55.610Z,4.60
2018-09-17T03:17:55.577Z,5.00
2018-09-17T03:18:55.589Z,4.70
2018-09-17T03:19:55.566Z,4.90
2018-09-17T03:20:55.549Z,4.70
2018-09-17T03:21:55.555Z,4.80
2018-09-17T03:22:55.526Z,4.60
2018-09-17T03:23:55.516Z,4.80
2018-09-17T03:24:55.500Z,4.70
2018-09-17T03:25:55.501Z,4.70
2018-09-17T03:26:55.509Z,4.80
2018-09-17T03:27:55.474Z,4.70
2018-09-17T03:28:55.455Z,4.70
2018-09-17T03:29:55.447Z,4.50
2018-09-17T03:30:55.432Z,5.20
2018-09-17T03:31:55.428Z,4.60
2018-09-17T03:32:55.424Z,4.70
2018-09-17T03:33:55.402Z,4.60
2018-09-17T03:34:55.387Z,4.80
2018-09-17T03:35:55.377Z,4.50
2018-09-17T03:36:55.365Z,4.80
2018-09-17T03:37:55.379Z,4.40
2018-09-17T03:38:55.347Z,4.80
2018-09-17T03:39:55.331Z,4.70
2018-09-17T03:40:55.321Z,4.30
2018-09-17T03:41:55.312Z,4.60
2018-09-17T03:42:55.321Z,4.50
2018-09-17T03:43:55.293Z,4.50
2018-09-17T03:44:55.275Z,4.30
2018-09-17T03:45:55.264Z,4.60
2018-09-17T03:46:55.258Z,4.50
2018-09-17T03:47:55.257Z,4.50
2018-09-17T03:48:55.231Z,4.50
2018-09-17T03:49:55.225Z,4.50
2018-09-17T03:50:55.209Z,4.50
2018-09-17T03:51:55.202Z,4.70
2018-09-17T03:52:55.201Z,4.20
2018-09-17T03:53:55.176Z,4.50
2018-09-17T03:54:55.176Z,4.40
2018-09-17T03:55:55.163Z,4.40
2018-09-17T03:56:55.146Z,4.70
2018-09-17T03:57:55.148Z,4.20
2018-09-17T03:58:55.128Z,4.70
2018-09-17T03:59:55.110Z,4.40
2018-09-17T04:00:55.102Z,4.40
2018-09-17T04:01:55.110Z,4.40
2018-09-17T04:02:55.095Z,4.40
2018-09-17T04:03:55.063Z,4.60
2018-09-17T04:04:55.057Z,4.50
2018-09-17T04:05:55.042Z,4.70
2018-09-17T04:06:55.035Z,4.20
2018-09-17T04:07:55.052Z,4.30
2018-09-17T04:08:55.017Z,4.30
2018-09-17T04:09:55.000Z,4.20
2018-09-17T04:10:54.987Z,4.30
2018-09-17T04:11:54.978Z,4.30
2018-09-17T04:12:54.984Z,4.30
2018-09-17T04:13:54.981Z,4.60
2018-09-17T04:14:54.948Z,4.30
2018-09-17T04:15:54.938Z,4.10
2018-09-17T04:16:54.922Z,4.70
2018-09-17T04:17:54.936Z,4.20
2018-09-17T04:18:54.905Z,4.10
2018-09-17T04:19:54.894Z,4.10
2018-09-17T04:20:54.879Z,4.30
2018-09-17T04:21:54.868Z,4.40
2018-09-17T04:22:54.886Z,4.60
2018-09-17T04:23:54.846Z,4.20
2018-09-17T04:24:54.840Z,4.50
2018-09-17T04:25:54.823Z,4.10
2018-09-17T04:26:54.813Z,4.60
2018-09-17T04:27:54.818Z,4.30
2018-09-17T04:28:54.803Z,4.30
2018-09-17T04:29:54.781Z,4.10
2018-09-17T04:30:54.775Z,4.10
2018-09-17T04:31:54.762Z,4.00
2018-09-17T04:32:54.774Z,4.30
2018-09-17T04:33:54.744Z,3.90
2018-09-17T04:34:54.800Z,4.30
2018-09-17T04:35:54.720Z,4.10
2018-09-17T04:36:54.711Z,4.20
2018-09-17T04:37:54.699Z,4.20
2018-09-17T04:38:54.700Z,4.20
2018-09-17T04:39:54.740Z,4.30
2018-09-17T04:40:54.663Z,4.20
2018-09-17T04:41:54.696Z,4.20
2018-09-17T04:42:54.643Z,4.50
2018-09-17T04:43:54.649Z,4.30
2018-09-17T04:44:54.619Z,4.20
2018-09-17T04:45:54.611Z,4.60
2018-09-17T04:46:54.603Z,4.30
2018-09-17T04:47:54.600Z,4.20
2018-09-17T04:48:54.596Z,4.10
2018-09-17T04:49:54.566Z,4.30
2018-09-17T04:50:54.554Z,4.30
2018-09-17T04:51:54.545Z,3.80
2018-09-17T04:52:54.539Z,3.90
2018-09-17T04:53:54.570Z,4.00
2018-09-17T04:54:54.515Z,3.90
2018-09-17T04:55:54.503Z,3.70
2018-09-17T04:56:54.492Z,4.20
2018-09-17T04:57:54.478Z,4.00
2018-09-17T04:58:54.491Z,4.10
2018-09-17T04:59:54.468Z,3.50
2018-09-17T05:00:54.447Z,3.90
2018-09-17T05:01:54.436Z,3.70
2018-09-17T05:02:54.427Z,4.00
2018-09-17T05:03:54.432Z,3.60
2018-09-17T05:04:54.403Z,4.10
2018-09-17T05:05:54.418Z,3.60
2018-09-17T05:06:54.382Z,3.70
2018-09-17T05:07:54.378Z,3.90
2018-09-17T05:08:54.386Z,3.70
2018-09-17T05:09:54.351Z,3.70
2018-09-17T05:10:54.342Z,3.60
2018-09-17T05:11:54.335Z,3.80
2018-09-17T05:12:54.346Z,3.90
2018-09-17T05:13:54.335Z,3.40
2018-09-17T05:14:54.296Z,3.90
2018-09-17T05:15:54.285Z,3.50
2018-09-17T05:16:54.273Z,3.60
2018-09-17T05:17:54.267Z,3.80
2018-09-17T05:18:54.269Z,3.50
2018-09-17T05:19:54.253Z,3.50
2018-09-17T05:20:54.231Z,3.60
2018-09-17T05:21:54.219Z,3.90
2018-09-17T05:22:54.209Z,3.70
2018-09-17T05:23:54.216Z,3.60
2018-09-17T05:24:54.192Z,3.40
2018-09-17T05:25:54.189Z,3.60
2018-09-17T05:26:54.258Z,3.60
2018-09-17T05:27:54.157Z,3.50
2018-09-17T05:28:54.159Z,3.40
2018-09-17T05:29:54.135Z,3.70
2018-09-17T05:30:54.127Z,3.60
2018-09-17T05:31:54.122Z,3.10
2018-09-17T05:32:54.104Z,3.50
2018-09-17T05:33:54.116Z,3.40
2018-09-17T05:34:54.097Z,3.30
2018-09-17T05:35:54.070Z,3.30
2018-09-17T05:36:54.059Z,3.40
2018-09-17T05:37:54.052Z,3.50
2018-09-17T05:38:54.057Z,3.30
2018-09-17T05:39:54.038Z,3.70
2018-09-17T05:40:54.062Z,3.40
2018-09-17T05:41:54.010Z,3.50
2018-09-17T05:42:53.999Z,3.00
2018-09-17T05:43:54.017Z,3.70
2018-09-17T05:44:53.978Z,3.10
2018-09-17T05:45:53.977Z,3.50
2018-09-17T05:46:53.959Z,3.40
2018-09-17T05:47:53.943Z,3.20
2018-09-17T05:48:53.930Z,3.50
2018-09-17T05:49:53.941Z,3.20
2018-09-17T05:50:53.910Z,3.70
2018-09-17T05:51:53.918Z,3.60
2018-09-17T05:52:53.891Z,3.40
2018-09-17T05:53:53.908Z,3.40
2018-09-17T05:54:53.885Z,3.30
2018-09-17T05:55:53.855Z,3.40
2018-09-17T05:56:53.843Z,3.40
2018-09-17T05:57:53.846Z,3.30
2018-09-17T05:58:53.823Z,3.40
2018-09-17T05:59:53.828Z,3.30
2018-09-17T06:00:53.802Z,3.30
2018-09-17T06:01:53.790Z,3.10
2018-09-17T06:02:53.780Z,3.30
2018-09-17T06:03:53.795Z,3.30
2018-09-17T06:04:53.773Z,3.40
2018-09-17T06:05:53.788Z,3.20
2018-09-17T06:06:53.829Z,3.50
2018-09-17T06:07:53.726Z,3.10
2018-09-17T06:08:53.716Z,3.20
2018-09-17T06:09:53.763Z,3.20
2018-09-17T06:10:53.692Z,3.50
2018-09-17T06:11:53.738Z,3.50
2018-09-17T06:12:53.680Z,3.30
2018-09-17T06:13:53.659Z,3.40
2018-09-17T06:14:53.664Z,3.40
2018-09-17T06:15:53.654Z,3.50
2018-09-17T06:16:53.629Z,3.40
2018-09-17T06:17:53.617Z,3.40
2018-09-17T06:18:53.610Z,3.40
2018-09-17T06:19:53.610Z,3.10
2018-09-17T06:20:53.583Z,3.50
2018-09-17T06:21:53.588Z,3.30
2018-09-17T06:22:53.568Z,3.50
2018-09-17T06:23:53.555Z,3.30
2018-09-17T06:24:53.558Z,3.40
2018-09-17T06:25:53.536Z,3.10
2018-09-17T06:26:53.520Z,3.30
2018-09-17T06:27:53.517Z,3.50
2018-09-17T06:28:53.603Z,3.10
2018-09-17T06:29:53.502Z,3.20
2018-09-17T06:30:53.475Z,3.20
2018-09-17T06:31:53.465Z,3.60
2018-09-17T06:32:53.459Z,3.40
2018-09-17T06:33:53.447Z,3.50
2018-09-17T06:34:53.477Z,3.40
2018-09-17T06:35:53.421Z,3.20
2018-09-17T06:36:53.410Z,3.60
2018-09-17T06:37:53.402Z,3.80
2018-09-17T06:38:53.398Z,3.50
2018-09-17T06:39:53.398Z,3.50
2018-09-17T06:40:53.365Z,3.50
2018-09-17T06:41:53.361Z,3.60
2018-09-17T06:42:53.346Z,3.60
2018-09-17T06:43:53.335Z,3.90
2018-09-17T06:44:53.407Z,3.70
2018-09-17T06:45:53.311Z,3.60
2018-09-17T06:46:53.301Z,3.70
2018-09-17T06:47:53.328Z,4.00
2018-09-17T06:48:53.290Z,3.50
2018-09-17T06:49:53.286Z,3.90
2018-09-17T06:50:53.254Z,4.20
2018-09-17T06:51:53.245Z,4.00
2018-09-17T06:52:53.232Z,3.80
2018-09-17T06:53:53.230Z,3.80
2018-09-17T06:54:53.242Z,4.40
2018-09-17T06:55:53.198Z,4.50
2018-09-17T06:56:53.204Z,4.30
2018-09-17T06:57:53.179Z,4.00
2018-09-17T06:58:53.167Z,4.00
2018-09-17T06:59:53.160Z,4.10
2018-09-17T07:00:53.161Z,4.10
2018-09-17T07:01:53.132Z,3.70
2018-09-17T07:02:53.122Z,3.90
2018-09-17T07:03:53.109Z,3.90
2018-09-17T07:04:53.104Z,4.00
2018-09-17T07:05:53.116Z,3.90
2018-09-17T07:06:53.081Z,4.10
2018-09-17T07:07:53.066Z,3.90
2018-09-17T07:08:53.055Z,3.60
2018-09-17T07:09:53.049Z,4.10
2018-09-17T07:10:53.055Z,4.10
2018-09-17T07:11:53.031Z,3.90
2018-09-17T07:12:53.010Z,4.20
2018-09-17T07:13:53.013Z,3.60
2018-09-17T07:14:52.992Z,3.90
2018-09-17T07:15:52.995Z,3.80
2018-09-17T07:16:52.967Z,3.70
2018-09-17T07:17:52.984Z,4.40
2018-09-17T07:18:52.946Z,3.90
2018-09-17T07:19:52.935Z,3.90
2018-09-17T07:20:52.948Z,3.60
2018-09-17T07:21:52.912Z,3.80
2018-09-17T07:22:52.902Z,4.20
2018-09-17T07:23:52.911Z,4.40
2018-09-17T07:24:52.885Z,3.80
2018-09-17T07:25:52.885Z,4.20
2018-09-17T07:26:52.856Z,4.80
2018-09-17T07:27:52.846Z,4.10
2018-09-17T07:28:52.840Z,4.60
2018-09-17T07:29:52.834Z,4.30
2018-09-17T07:30:52.828Z,4.00
2018-09-17T07:31:52.802Z,3.90
2018-09-17T07:32:52.793Z,4.20
2018-09-17T07:33:52.781Z,4.40
2018-09-17T07:34:52.770Z,4.30
2018-09-17T07:35:52.787Z,4.70
2018-09-17T07:36:52.749Z,4.50
2018-09-17T07:37:52.761Z,4.80
2018-09-17T07:38:52.728Z,4.50
2018-09-17T07:39:52.718Z,4.70
2018-09-17T07:40:52.733Z,4.70
2018-09-17T07:41:52.700Z,4.90
2018-09-17T07:42:52.689Z,4.30
2018-09-17T07:43:52.673Z,4.10
2018-09-17T07:44:52.663Z,4.40
2018-09-17T07:45:52.668Z,4.40
2018-09-17T07:46:52.644Z,4.20
2018-09-17T07:47:52.651Z,4.40
2018-09-17T07:48:52.623Z,4.40
2018-09-17T07:49:52.613Z,4.70
2018-09-17T07:50:52.618Z,4.60
2018-09-17T07:51:52.588Z,4.20
2018-09-17T07:52:52.628Z,5.20
2018-09-17T07:53:52.568Z,4.00
2018-09-17T07:54:52.570Z,4.20
2018-09-17T07:55:52.563Z,4.80
2018-09-17T07:56:52.532Z,4.40
2018-09-17T07:57:52.528Z,5.30
2018-09-17T07:58:52.602Z,4.40
2018-09-17T07:59:52.500Z,4.40
2018-09-17T08:00:52.513Z,5.40
2018-09-17T08:01:52.480Z,4.50
2018-09-17T08:02:52.472Z,5.40
2018-09-17T08:03:52.462Z,4.80
2018-09-17T08:04:52.447Z,4.80
2018-09-17T08:05:52.468Z,4.10
2018-09-17T08:06:52.439Z,4.40
2018-09-17T08:07:52.415Z,4.30
2018-09-17T08:08:52.416Z,4.60
2018-09-17T08:09:52.392Z,4.80
2018-09-17T08:10:52.389Z,4.90
2018-09-17T08:11:52.394Z,5.30
2018-09-17T08:12:52.370Z,4.70
2018-09-17T08:13:52.358Z,5.50
2018-09-17T08:14:52.347Z,5.10
2018-09-17T08:15:52.327Z,4.90
2018-09-17T08:16:52.336Z,5.30
2018-09-17T08:17:52.313Z,5.10
2018-09-17T08:18:52.304Z,5.50
2018-09-17T08:19:52.284Z,4.70
2018-09-17T08:20:52.274Z,4.90
2018-09-17T08:21:52.281Z,4.70
2018-09-17T08:22:52.254Z,5.40
2018-09-17T08:23:52.241Z,5.30
2018-09-17T08:24:52.239Z,4.80
2018-09-17T08:25:52.220Z,4.80
2018-09-17T08:26:52.230Z,5.20
2018-09-17T08:27:52.201Z,4.70
2018-09-17T08:28:52.194Z,5.10
2018-09-17T08:29:52.184Z,5.50
2018-09-17T08:30:52.182Z,5.40
2018-09-17T08:31:52.175Z,5.60
2018-09-17T08:32:52.145Z,5.50
2018-09-17T08:33:52.137Z,5.40
2018-09-17T08:34:52.124Z,5.40
2018-09-17T08:35:52.113Z,5.30
2018-09-17T08:36:52.129Z,5.10
2018-09-17T08:37:52.091Z,4.90
2018-09-17T08:38:52.089Z,4.70
2018-09-17T08:39:52.069Z,5.00
2018-09-17T08:40:52.069Z,5.10
2018-09-17T08:41:52.073Z,5.50
2018-09-17T08:42:52.048Z,5.10
2018-09-17T08:43:52.029Z,5.40
2018-09-17T08:44:52.014Z,5.60
2018-09-17T08:45:52.012Z,5.60
2018-09-17T08:46:52.008Z,5.60
2018-09-17T08:47:51.982Z,5.50
2018-09-17T08:48:51.986Z,5.60
2018-09-17T08:49:51.959Z,5.00
2018-09-17T08:50:51.948Z,5.90
2018-09-17T08:51:51.952Z,5.30
2018-09-17T08:52:52.003Z,5.40
2018-09-17T08:53:51.922Z,5.40
2018-09-17T08:54:51.915Z,6.20
2018-09-17T08:55:51.893Z,5.50
2018-09-17T08:56:51.899Z,5.50
2018-09-17T08:57:51.873Z,5.20
2018-09-17T08:58:51.859Z,5.70
2018-09-17T08:59:51.853Z,6.20
2018-09-17T09:00:51.855Z,5.10
2018-09-17T09:01:51.843Z,5.40
2018-09-17T09:02:51.818Z,5.60
2018-09-17T09:03:51.824Z,5.20
2018-09-17T09:04:51.793Z,5.10
2018-09-17T09:05:51.787Z,4.90
2018-09-17T09:06:51.785Z,5.20
2018-09-17T09:07:51.774Z,5.50
2018-09-17T09:08:51.755Z,5.60
2018-09-17T09:09:51.737Z,5.50
2018-09-17T09:10:51.730Z,5.60
2018-09-17T09:11:51.719Z,5.40
2018-09-17T09:12:51.754Z,5.60
2018-09-17T09:13:51.692Z,5.80
2018-09-17T09:14:51.682Z,5.60
2018-09-17T09:15:51.675Z,6.00
2018-09-17T09:16:51.658Z,5.30
2018-09-17T09:17:51.661Z,5.40
2018-09-17T09:18:51.650Z,5.20
2018-09-17T09:19:51.627Z,5.90
2018-09-17T09:20:51.621Z,5.60
2018-09-17T09:21:51.603Z,5.80
2018-09-17T09:22:51.607Z,6.10
2018-09-17T09:23:51.582Z,5.20
2018-09-17T09:24:51.578Z,5.60
2018-09-17T09:25:51.562Z,5.60
2018-09-17T09:26:51.558Z,5.60
2018-09-17T09:27:51.566Z,5.60
2018-09-17T09:28:51.531Z,5.80
2018-09-17T09:29:51.514Z,6.10
2018-09-17T09:30:51.569Z,6.40
2018-09-17T09:31:51.491Z,5.60
2018-09-17T09:32:51.495Z,5.40
2018-09-17T09:33:51.475Z,5.90
2018-09-17T09:34:51.470Z,5.50
2018-09-17T09:35:51.496Z,5.80
2018-09-17T09:36:51.436Z,6.50
2018-09-17T09:37:51.441Z,6.00
2018-09-17T09:38:51.419Z,6.20
2018-09-17T09:39:51.406Z,5.70
2018-09-17T09:40:51.393Z,6.00
2018-09-17T09:41:51.391Z,5.40
2018-09-17T09:42:51.391Z,5.00
2018-09-17T09:43:51.363Z,4.80
2018-09-17T09:44:51.348Z,5.20
2018-09-17T09:45:51.339Z,5.30
2018-09-17T09:46:51.345Z,5.40
2018-09-17T09:47:51.447Z,5.10
2018-09-17T09:48:51.304Z,5.00
2018-09-17T09:49:51.306Z,4.90
2018-09-17T09:50:51.281Z,5.30
2018-09-17T09:51:51.271Z,5.30
2018-09-17T09:52:51.323Z,5.90
2018-09-17T09:53:51.283Z,5.80
2018-09-17T09:54:51.242Z,5.90
2018-09-17T09:55:51.232Z,6.00
2018-09-17T09:56:51.216Z,6.40
2018-09-17T09:57:51.205Z,6.80
2018-09-17T09:58:51.209Z,6.20
2018-09-17T09:59:51.191Z,6.10
2018-09-17T10:00:51.177Z,5.90
2018-09-17T10:01:51.164Z,6.30
2018-09-17T10:02:51.149Z,6.50
2018-09-17T10:03:51.153Z,5.70
2018-09-17T10:04:51.130Z,5.50
2018-09-17T10:05:51.128Z,5.00
2018-09-17T10:06:51.111Z,5.30
2018-09-17T10:07:51.101Z,5.30
2018-09-17T10:08:51.110Z,5.60
2018-09-17T10:09:51.931Z,5.20
2018-09-17T10:10:51.066Z,5.40
2018-09-17T10:11:51.064Z,4.80
2018-09-17T10:12:51.044Z,5.10
2018-09-17T10:13:51.043Z,5.40
2018-09-17T10:14:51.013Z,5.30
2018-09-17T10:15:51.007Z,6.00
2018-09-17T10:16:50.994Z,5.90
2018-09-17T10:17:50.993Z,5.40
2018-09-17T10:18:50.983Z,5.50
2018-09-17T10:19:50.956Z,5.20
2018-09-17T10:20:50.946Z,5.30
2018-09-17T10:21:50.935Z,5.60
2018-09-17T10:22:50.927Z,5.40
2018-09-17T10:23:50.935Z,5.00
2018-09-17T10:24:50.918Z,5.40
2018-09-17T10:25:50.892Z,6.10
2018-09-17T10:26:50.887Z,5.90
2018-09-17T10:27:50.867Z,6.40
2018-09-17T10:28:50.868Z,6.10
2018-09-17T10:29:50.965Z,6.10
2018-09-17T10:30:50.847Z,6.00
2018-09-17T10:31:50.820Z,6.30
2018-09-17T10:32:50.812Z,6.10
2018-09-17T10:33:50.830Z,6.20
2018-09-17T10:34:50.785Z,6.40
2018-09-17T10:35:50.778Z,5.70
2018-09-17T10:36:50.779Z,5.80
2018-09-17T10:37:50.753Z,6.40
2018-09-17T10:38:50.745Z,7.20
2018-09-17T10:39:50.749Z,6.60
2018-09-17T10:40:50.720Z,7.70
2018-09-17T10:41:50.715Z,8.10
2018-09-17T10:42:50.703Z,7.20
2018-09-17T10:43:50.684Z,7.00
2018-09-17T10:44:50.686Z,6.50
2018-09-17T10:45:50.662Z,5.50
2018-09-17T10:46:50.710Z,6.40
2018-09-17T10:47:50.644Z,6.10
2018-09-17T10:48:50.633Z,5.80
2018-09-17T10:49:50.631Z,5.20
2018-09-17T10:50:50.605Z,5.30
2018-09-17T10:51:50.602Z,5.40
2018-09-17T10:52:50.589Z,4.90
2018-09-17T10:53:50.571Z,4.70
2018-09-17T10:54:50.610Z,4.90
2018-09-17T10:55:50.547Z,4.50
2018-09-17T10:56:50.536Z,4.40
2018-09-17T10:57:50.529Z,4.80
2018-09-17T10:58:50.523Z,4.70
2018-09-17T10:59:50.528Z,4.60
2018-09-17T11:00:50.528Z,4.60
2018-09-17T11:01:50.478Z,4.60
2018-09-17T11:02:51.437Z,4.30
2018-09-17T11:03:50.457Z,4.60
2018-09-17T11:04:50.479Z,4.70
2018-09-17T11:05:50.431Z,4.90
2018-09-17T11:06:50.444Z,4.70
2018-09-17T11:07:50.411Z,4.50
2018-09-17T11:08:50.404Z,5.00
2018-09-17T11:09:50.407Z,4.70
2018-09-17T11:10:50.376Z,4.80
2018-09-17T11:11:50.369Z,6.00
2018-09-17T11:12:50.359Z,6.70
2018-09-17T11:13:50.349Z,6.70
2018-09-17T11:14:50.352Z,9.30
2018-09-17T11:15:50.322Z,28.50
2018-09-17T11:16:50.327Z,11.80
2018-09-17T11:17:50.294Z,14.50
2018-09-17T11:18:50.282Z,13.90
2018-09-17T11:19:50.315Z,14.90
2018-09-17T11:20:50.261Z,16.00
2018-09-17T11:21:50.257Z,18.90
2018-09-17T11:22:50.237Z,18.70
2018-09-17T11:23:50.226Z,19.40
2018-09-17T11:24:50.238Z,19.80
2018-09-17T11:25:50.206Z,19.20
2018-09-17T11:26:50.197Z,17.80
2018-09-17T11:27:50.181Z,16.40
2018-09-17T11:28:50.174Z,14.90
2018-09-17T11:29:50.180Z,13.50
2018-09-17T11:30:50.151Z,11.70
2018-09-17T11:31:50.144Z,11.00
2018-09-17T11:32:50.134Z,9.70
2018-09-17T11:33:50.111Z,8.80
2018-09-17T11:34:50.099Z,8.70
2018-09-17T11:35:50.107Z,7.80
2018-09-17T11:36:50.106Z,7.60
2018-09-17T11:37:50.067Z,7.80
2018-09-17T11:38:50.058Z,7.80
2018-09-17T11:39:50.044Z,8.40
2018-09-17T11:40:50.049Z,9.30
2018-09-17T11:41:50.021Z,9.50
2018-09-17T11:42:50.024Z,10.60
2018-09-17T11:43:49.999Z,10.80
2018-09-17T11:44:49.998Z,11.10
2018-09-17T11:45:50.004Z,10.40
2018-09-17T11:46:49.965Z,13.60
2018-09-17T11:47:49.968Z,14.10
2018-09-17T11:48:49.944Z,14.20
2018-09-17T11:49:50.089Z,13.30
2018-09-17T11:50:49.942Z,12.90
2018-09-17T11:51:49.912Z,12.20
2018-09-17T11:52:51.243Z,12.50
2018-09-17T11:53:50.883Z,11.60
2018-09-17T11:54:49.892Z,10.60
2018-09-17T11:55:49.891Z,10.40
2018-09-17T11:56:49.952Z,10.30
2018-09-17T11:57:49.857Z,9.70
2018-09-17T11:58:49.990Z,10.10
2018-09-17T11:59:50.781Z,10.30
2018-09-17T12:00:50.197Z,9.40
2018-09-17T12:01:49.806Z,10.00
2018-09-17T12:02:51.378Z,10.30
2018-09-17T12:03:51.569Z,9.40
2018-09-17T12:04:49.767Z,9.10
2018-09-17T12:05:49.774Z,9.60
2018-09-17T12:06:49.744Z,9.10
2018-09-17T12:07:49.741Z,9.40
2018-09-17T12:08:49.723Z,9.50
2018-09-17T12:09:49.858Z,9.00
2018-09-17T12:10:49.736Z,9.00
2018-09-17T12:11:49.688Z,8.70
2018-09-17T12:12:49.686Z,10.10
2018-09-17T12:13:50.199Z,11.20
2018-09-17T12:14:49.657Z,9.70
2018-09-17T12:15:49.663Z,9.20
2018-09-17T12:16:49.854Z,9.50
2018-09-17T12:17:49.653Z,13.30
2018-09-17T12:18:49.613Z,15.00
2018-09-17T12:19:49.603Z,13.90
2018-09-17T12:20:49.598Z,14.10
2018-09-17T12:21:49.620Z,17.90
2018-09-17T12:22:49.567Z,16.60
2018-09-17T12:23:49.587Z,18.10
2018-09-17T12:24:49.551Z,17.60
2018-09-17T12:25:49.541Z,23.20
2018-09-17T12:26:49.966Z,29.70
2018-09-17T12:27:49.522Z,24.40
2018-09-17T12:28:49.503Z,19.40
2018-09-17T12:29:50.059Z,21.60
2018-09-17T12:30:49.487Z,21.70
2018-09-17T12:31:49.487Z,26.80
2018-09-17T12:32:49.480Z,26.30
2018-09-17T12:33:49.589Z,22.50
2018-09-17T12:34:49.444Z,24.50
2018-09-17T12:35:49.456Z,26.40
2018-09-17T12:36:49.449Z,32.60
2018-09-17T12:37:49.419Z,26.20
2018-09-17T12:38:49.397Z,28.60
2018-09-17T12:39:49.382Z,23.80
2018-09-17T12:40:49.371Z,19.80
2018-09-17T12:41:49.388Z,18.20
2018-09-17T12:42:49.355Z,17.00
2018-09-17T12:43:49.338Z,15.50
2018-09-17T12:44:49.337Z,14.00
2018-09-17T12:45:49.368Z,13.50
2018-09-17T12:46:49.348Z,11.10
2018-09-17T12:47:49.301Z,12.10
2018-09-17T12:48:49.297Z,10.40
2018-09-17T12:49:49.276Z,10.90
2018-09-17T12:50:49.264Z,13.40
2018-09-17T12:51:49.269Z,11.30
2018-09-17T12:52:49.255Z,11.60
2018-09-17T12:53:49.231Z,12.60
2018-09-17T12:54:49.225Z,11.90
2018-09-17T12:55:49.254Z,10.90
2018-09-17T12:56:49.301Z,10.80
2018-09-17T12:57:49.194Z,13.80
2018-09-17T12:58:49.179Z,14.10
2018-09-17T12:59:49.164Z,12.30
2018-09-17T13:00:49.297Z,16.80
2018-09-17T13:01:49.166Z,19.30
2018-09-17T13:02:49.135Z,20.10
2018-09-17T13:03:49.124Z,17.00
2018-09-17T13:04:49.112Z,16.10
2018-09-17T13:05:49.101Z,18.00
2018-09-17T13:06:49.133Z,16.50
2018-09-17T13:07:49.081Z,18.80
2018-09-17T13:08:49.067Z,19.10
2018-09-17T13:09:49.073Z,23.20
2018-09-17T13:10:49.050Z,22.80
2018-09-17T13:11:49.039Z,22.40
2018-09-17T13:12:49.044Z,21.50
2018-09-17T13:13:49.015Z,21.40
2018-09-17T13:14:49.014Z,20.70
2018-09-17T13:15:48.992Z,20.80